Time;durP1;ratioP1;P1;durP2;ratioP2;P2;SDS_P1;SDS_P2;PMS_P1;PMS_P2;Temp;Humidity;BMP_temperature;BMP_pressure;BME280_temperature;BME280_humidity;BME280_pressure;Samples;Min_cycle;Max_cycle;Signal;HPM_P1;HPM_P2
2021/01/16 00:00:21;;;;;;;42.63;13.37;;;-10.70;99.90;;;;;;4826153;29;20197;-86
2021/01/16 00:02:46;;;;;;;31.67;12.17;;;-10.60;99.90;;;;;;4825782;29;20250;-87
2021/01/16 00:05:15;;;;;;;24.80;9.90;;;-10.60;99.90;;;;;;4810589;29;20198;-86
2021/01/16 00:07:43;;;;;;;31.47;13.47;;;-10.50;99.90;;;;;;4842214;29;20232;-87
2021/01/16 00:10:09;;;;;;;33.27;12.10;;;-10.50;99.90;;;;;;4810313;29;20208;-86
2021/01/16 00:12:35;;;;;;;26.10;11.27;;;-10.50;99.90;;;;;;4825336;29;20246;-86
2021/01/16 00:15:01;;;;;;;27.53;12.10;;;-10.60;99.90;;;;;;4825634;29;20314;-87
2021/01/16 00:17:26;;;;;;;26.17;10.43;;;-9.80;99.90;;;;;;4825436;29;20226;-87
2021/01/16 00:19:52;;;;;;;34.77;12.93;;;-10.50;99.90;;;;;;4809867;29;20206;-87
2021/01/16 00:22:17;;;;;;;31.80;14.50;;;-10.50;99.90;;;;;;4825654;29;20559;-86
2021/01/16 00:24:43;;;;;;;29.53;11.47;;;-10.40;99.90;;;;;;4825406;29;20227;-88
2021/01/16 00:27:09;;;;;;;28.60;12.10;;;-10.40;99.90;;;;;;4810138;29;20210;-87
2021/01/16 00:29:34;;;;;;;35.03;12.60;;;-10.40;99.90;;;;;;4825124;29;20195;-87
2021/01/16 00:32:00;;;;;;;30.13;11.07;;;-10.40;99.90;;;;;;4809934;29;20647;-87
2021/01/16 00:34:26;;;;;;;33.17;10.77;;;-10.40;99.90;;;;;;4810019;29;20217;-87
2021/01/16 00:36:51;;;;;;;30.30;10.53;;;-10.40;99.90;;;;;;4824296;29;20314;-87
2021/01/16 00:39:17;;;;;;;32.50;12.73;;;-10.50;99.90;;;;;;4809477;29;20202;-87
2021/01/16 00:41:42;;;;;;;28.00;9.80;;;-10.30;99.90;;;;;;4825242;29;20197;-87
2021/01/16 00:44:08;;;;;;;23.93;11.47;;;-10.30;99.90;;;;;;4825087;29;20198;-86
2021/01/16 00:46:34;;;;;;;30.47;11.83;;;-10.20;99.90;;;;;;4809944;29;20553;-87
2021/01/16 00:48:59;;;;;;;18.17;7.83;;;-7.90;99.90;;;;;;4824634;29;20194;-86
2021/01/16 00:51:25;;;;;;;22.93;9.83;;;-10.00;99.90;;;;;;4841406;29;20276;-86
2021/01/16 00:53:51;;;;;;;28.23;11.33;;;-10.10;99.90;;;;;;4825295;29;20208;-87
2021/01/16 00:56:16;;;;;;;24.03;11.50;;;-10.00;99.90;;;;;;4824767;29;20202;-87
2021/01/16 00:58:42;;;;;;;22.47;9.40;;;-10.10;99.90;;;;;;4825174;29;20203;-86
2021/01/16 01:01:07;;;;;;;19.13;9.70;;;-10.00;99.90;;;;;;4809674;29;20558;-86
2021/01/16 01:03:33;;;;;;;25.90;9.87;;;-10.00;99.90;;;;;;4824854;29;20623;-87
2021/01/16 01:05:59;;;;;;;27.23;12.27;;;-10.00;99.90;;;;;;4839779;29;20282;-86
2021/01/16 01:08:29;;;;;;;32.80;11.37;;;-10.00;99.90;;;;;;4839847;29;20230;-87
2021/01/16 01:10:55;;;;;;;27.27;10.90;;;-10.00;99.90;;;;;;4806168;29;20289;-86
2021/01/16 01:13:21;;;;;;;21.40;10.03;;;-9.70;99.90;;;;;;4816624;29;20329;-87
2021/01/16 01:15:46;;;;;;;28.77;11.20;;;-10.00;99.90;;;;;;4841953;29;20209;-86
2021/01/16 01:18:12;;;;;;;26.67;11.67;;;-10.10;99.90;;;;;;4842175;29;20215;-87
2021/01/16 01:20:37;;;;;;;29.00;11.27;;;-9.90;99.90;;;;;;4808315;29;20203;-87
2021/01/16 01:23:03;;;;;;;25.23;11.67;;;-9.80;99.90;;;;;;4819709;29;20196;-87
2021/01/16 01:25:29;;;;;;;17.40;9.63;;;-8.00;99.90;;;;;;4801498;29;20200;-87
2021/01/16 01:27:57;;;;;;;25.97;10.97;;;-9.80;99.90;;;;;;4825117;29;20191;-86
2021/01/16 01:30:25;;;;;;;32.10;12.50;;;-9.80;99.90;;;;;;4824614;29;20217;-86
2021/01/16 01:32:51;;;;;;;25.47;11.37;;;-11.00;99.90;;;;;;4825358;29;20197;-86
2021/01/16 01:35:18;;;;;;;25.13;9.80;;;-9.80;99.90;;;;;;4825650;29;20206;-86
2021/01/16 01:37:49;;;;;;;27.83;12.43;;;-9.80;99.90;;;;;;4825395;29;20222;-85
2021/01/16 01:40:16;;;;;;;28.13;12.03;;;-9.70;99.90;;;;;;4825554;29;20272;-87
2021/01/16 01:42:45;;;;;;;27.43;10.47;;;-9.70;99.90;;;;;;4840761;29;20682;-87
2021/01/16 01:45:11;;;;;;;27.00;11.60;;;-9.70;99.90;;;;;;4806444;29;20984;-85
2021/01/16 01:47:38;;;;;;;45.13;14.17;;;-9.70;99.90;;;;;;4818331;29;20210;-86
2021/01/16 01:50:07;;;;;;;46.50;14.67;;;-9.70;99.90;;;;;;4823714;29;20233;-86
2021/01/16 01:52:34;;;;;;;24.80;10.53;;;-9.70;99.90;;;;;;4840863;29;20197;-84
2021/01/16 01:55:01;;;;;;;54.00;15.80;;;-9.60;99.90;;;;;;4833328;29;20187;-85
2021/01/16 01:57:29;;;;;;;39.97;12.70;;;-9.70;99.90;;;;;;4827663;29;20226;-87
2021/01/16 01:59:55;;;;;;;33.97;9.67;;;-9.70;99.90;;;;;;4827091;29;20202;-87
2021/01/16 02:02:22;;;;;;;30.00;11.10;;;-9.70;99.90;;;;;;4809231;29;20200;-87
2021/01/16 02:04:49;;;;;;;42.93;15.43;;;-9.70;99.90;;;;;;4809206;29;20315;-86
2021/01/16 02:07:23;;;;;;;43.17;13.57;;;-9.60;99.90;;;;;;4823551;29;20285;-86
2021/01/16 02:09:50;;;;;;;29.57;12.10;;;-9.60;99.90;;;;;;4824521;29;20653;-85
2021/01/16 02:12:16;;;;;;;32.53;12.20;;;-9.70;99.90;;;;;;4835578;29;20236;-87
2021/01/16 02:14:45;;;;;;;43.37;14.00;;;-8.30;99.90;;;;;;4824706;29;20199;-87
2021/01/16 02:17:15;;;;;;;46.13;15.67;;;-8.40;99.90;;;;;;4825295;29;20336;-86
2021/01/16 02:20:01;;;;;;;34.90;13.53;;;-9.70;99.90;;;;;;4826834;29;20213;-87
2021/01/16 02:22:31;;;;;;;37.70;13.60;;;-9.50;99.90;;;;;;4825190;29;20246;-88
2021/01/16 02:25:12;;;;;;;33.93;13.93;;;-9.50;99.90;;;;;;4825261;29;20191;-87
2021/01/16 02:27:50;;;;;;;26.13;12.03;;;-9.50;99.90;;;;;;4842717;29;20191;-87
2021/01/16 02:30:19;;;;;;;34.93;16.37;;;-9.50;99.90;;;;;;4827743;29;20198;-88
2021/01/16 02:32:47;;;;;;;31.37;12.43;;;-9.50;99.90;;;;;;4823859;29;20282;-87
2021/01/16 02:35:14;;;;;;;28.50;10.47;;;-9.50;99.90;;;;;;4840186;29;20190;-87
2021/01/16 02:37:53;;;;;;;30.97;13.40;;;-9.50;99.90;;;;;;4840204;29;20215;-88
2021/01/16 02:40:30;;;;;;;32.20;12.70;;;-7.90;99.90;;;;;;4828061;29;20686;-87
2021/01/16 02:43:02;;;;;;;30.97;13.03;;;-9.40;99.90;;;;;;4830184;29;20187;-87
2021/01/16 02:45:38;;;;;;;32.07;13.17;;;-9.30;99.90;;;;;;4840463;29;20188;-87
2021/01/16 02:48:22;;;;;;;23.63;11.50;;;-10.30;99.90;;;;;;4823463;29;20195;-87
2021/01/16 02:50:50;;;;;;;24.37;12.63;;;-8.30;99.90;;;;;;4829009;29;20239;-87
2021/01/16 02:53:23;;;;;;;32.93;12.87;;;-9.30;99.90;;;;;;4823130;29;20231;-87
2021/01/16 02:55:50;;;;;;;28.10;13.00;;;-9.30;99.90;;;;;;4840160;29;20195;-87
2021/01/16 02:58:17;;;;;;;25.57;10.97;;;-9.20;99.90;;;;;;4808069;29;20852;-87
2021/01/16 03:00:43;;;;;;;25.93;10.97;;;-9.20;99.90;;;;;;4824481;29;20205;-86
2021/01/16 03:03:09;;;;;;;26.70;12.40;;;-9.20;99.90;;;;;;4837141;29;20285;-87
2021/01/16 03:05:34;;;;;;;20.50;11.20;;;-9.20;99.90;;;;;;4829618;29;20287;-87
2021/01/16 03:08:02;;;;;;;30.20;13.27;;;-7.40;99.90;;;;;;4808501;29;20200;-88
2021/01/16 03:10:29;;;;;;;28.10;13.00;;;-9.20;99.90;;;;;;4838069;29;20687;-87
2021/01/16 03:12:55;;;;;;;17.57;9.13;;;-9.20;99.90;;;;;;4826427;29;20595;-87
2021/01/16 03:15:21;;;;;;;23.30;10.57;;;-9.10;99.90;;;;;;4826373;29;20309;-86
2021/01/16 03:17:57;;;;;;;21.50;8.37;;;-9.20;99.90;;;;;;4842798;29;20214;-87
2021/01/16 03:20:28;;;;;;;21.77;10.37;;;-9.20;99.90;;;;;;4825959;29;20729;-87
2021/01/16 03:22:59;;;;;;;28.50;12.10;;;-9.20;99.90;;;;;;4843345;29;20187;-87
2021/01/16 03:25:27;;;;;;;20.03;9.07;;;-9.10;99.90;;;;;;4826255;29;20601;-87
2021/01/16 03:27:54;;;;;;;27.33;12.63;;;-9.20;99.90;;;;;;4825847;29;20559;-87
2021/01/16 03:30:21;;;;;;;27.50;12.17;;;-9.20;99.90;;;;;;4825873;29;20226;-87
2021/01/16 03:32:48;;;;;;;26.50;10.23;;;-9.20;99.90;;;;;;4810995;29;20196;-87
2021/01/16 03:35:18;;;;;;;39.10;17.07;;;-9.20;99.90;;;;;;4826070;29;20254;-87
2021/01/16 03:37:44;;;;;;;21.60;11.03;;;-9.10;99.90;;;;;;4826055;29;20226;-87
2021/01/16 03:40:11;;;;;;;22.40;9.87;;;-6.50;99.90;;;;;;4825669;29;20210;-87
2021/01/16 03:42:38;;;;;;;21.30;10.17;;;-9.20;99.90;;;;;;4826543;29;20232;-87
2021/01/16 03:45:16;;;;;;;31.07;12.63;;;-9.20;99.90;;;;;;4810844;29;20187;-88
2021/01/16 03:47:41;;;;;;;21.27;8.63;;;-9.20;99.90;;;;;;4826146;29;20195;-87
2021/01/16 03:50:08;;;;;;;28.83;13.30;;;-9.30;99.90;;;;;;4825778;29;20270;-87
2021/01/16 03:52:38;;;;;;;23.27;9.63;;;-9.20;99.90;;;;;;4811048;29;20191;-87
2021/01/16 03:55:06;;;;;;;25.40;10.87;;;-9.20;99.90;;;;;;4842252;29;20286;-87
2021/01/16 03:57:32;;;;;;;24.27;12.93;;;-9.30;99.90;;;;;;4810816;29;20692;-87
2021/01/16 03:59:57;;;;;;;23.67;11.57;;;-9.30;99.90;;;;;;4841872;29;20199;-87
2021/01/16 04:02:23;;;;;;;17.90;10.23;;;-9.30;99.90;;;;;;4814217;29;20252;-88
2021/01/16 04:04:49;;;;;;;33.87;13.37;;;-9.50;99.90;;;;;;4834739;29;20703;-87
2021/01/16 04:07:16;;;;;;;32.47;12.07;;;-9.50;99.90;;;;;;4841895;29;20613;-88
2021/01/16 04:09:42;;;;;;;24.40;10.90;;;-9.50;99.90;;;;;;4825479;29;20199;-88
2021/01/16 04:12:08;;;;;;;22.80;12.37;;;-9.30;99.90;;;;;;4824548;29;20722;-89
2021/01/16 04:14:35;;;;;;;25.03;10.27;;;-9.40;99.90;;;;;;4810952;29;20199;-88
2021/01/16 04:17:08;;;;;;;32.27;13.17;;;-9.50;99.90;;;;;;4842619;29;20684;-89
2021/01/16 04:19:34;;;;;;;35.33;14.17;;;-9.30;99.90;;;;;;4810402;29;20214;-89
2021/01/16 04:22:00;;;;;;;21.83;10.60;;;-9.40;99.90;;;;;;4826099;29;20539;-91
2021/01/16 04:24:30;;;;;;;20.27;8.47;;;-9.40;99.90;;;;;;4839708;29;20220;-93
2021/01/16 04:26:56;;;;;;;12.93;7.20;;;-9.30;99.90;;;;;;4817169;29;20199;-92
2021/01/16 04:29:21;;;;;;;25.23;11.50;;;-9.40;99.90;;;;;;4844326;29;20198;-90
2021/01/16 04:31:51;;;;;;;31.73;14.63;;;-9.40;99.90;;;;;;4825894;29;20195;-92
2021/01/16 04:34:17;;;;;;;27.93;12.73;;;-8.20;99.90;;;;;;4825105;29;20274;-92
2021/01/16 04:36:43;;;;;;;22.70;10.83;;;-9.30;99.90;;;;;;4837749;29;20311;-89
2021/01/16 04:39:09;;;;;;;30.47;12.07;;;-9.40;99.90;;;;;;4825087;29;20297;-88
2021/01/16 04:41:35;;;;;;;31.43;14.30;;;-9.40;99.90;;;;;;4841416;29;20704;-87
2021/01/16 04:44:01;;;;;;;27.43;12.20;;;-9.20;99.90;;;;;;4810002;29;20282;-88
2021/01/16 04:46:27;;;;;;;38.60;15.93;;;-9.30;99.90;;;;;;4824809;29;20221;-89
2021/01/16 04:49:05;;;;;;;33.80;13.77;;;-9.30;99.90;;;;;;4809627;29;20198;-89
2021/01/16 04:51:33;;;;;;;35.67;14.93;;;-8.40;99.90;;;;;;4824644;29;20704;-89
2021/01/16 04:54:01;;;;;;;44.67;18.70;;;-9.30;99.90;;;;;;4841440;29;20289;-89
2021/01/16 04:56:33;;;;;;;39.90;16.13;;;-9.40;99.90;;;;;;4841024;29;20251;-88
2021/01/16 04:59:00;;;;;;;26.10;12.67;;;-7.50;99.90;;;;;;4841084;29;20235;-88
2021/01/16 05:01:27;;;;;;;42.50;18.90;;;-9.50;99.90;;;;;;4809421;29;20565;-88
2021/01/16 05:03:55;;;;;;;44.33;17.17;;;-7.80;99.90;;;;;;4837555;29;20186;-88
2021/01/16 05:06:23;;;;;;;37.70;15.63;;;-8.60;99.90;;;;;;4806267;29;20199;-88
2021/01/16 05:08:50;;;;;;;33.23;13.23;;;-7.10;99.90;;;;;;4830930;29;20583;-89
2021/01/16 05:11:24;;;;;;;33.30;12.73;;;-9.50;99.90;;;;;;4809708;29;20336;-89
2021/01/16 05:14:11;;;;;;;37.80;15.50;;;-9.50;99.90;;;;;;4824955;29;20240;-89
2021/01/16 05:16:56;;;;;;;40.10;15.33;;;-9.50;99.90;;;;;;4834306;29;20614;-89
2021/01/16 05:19:26;;;;;;;29.33;14.03;;;-9.50;99.90;;;;;;4838764;29;20205;-89
2021/01/16 05:21:53;;;;;;;31.23;15.63;;;-9.40;99.90;;;;;;4824110;29;20864;-90
2021/01/16 05:24:19;;;;;;;30.07;13.47;;;-9.50;99.90;;;;;;4826962;29;21820;-90
2021/01/16 05:26:54;;;;;;;27.93;11.73;;;-9.40;99.90;;;;;;4806031;29;20217;-89
2021/01/16 05:29:23;;;;;;;25.27;11.50;;;-9.50;99.90;;;;;;4835010;29;20254;-89
2021/01/16 05:31:49;;;;;;;24.17;12.40;;;-9.50;99.90;;;;;;4806590;29;20192;-89
2021/01/16 05:34:15;;;;;;;29.17;14.30;;;-9.40;99.90;;;;;;4819488;29;20190;-88
2021/01/16 05:36:48;;;;;;;25.40;11.50;;;-9.50;99.90;;;;;;4840555;29;20252;-89
2021/01/16 05:39:14;;;;;;;23.17;10.00;;;-9.50;99.90;;;;;;4809127;29;20663;-89
2021/01/16 05:41:42;;;;;;;20.97;10.67;;;-9.70;99.90;;;;;;4824103;29;20187;-89
2021/01/16 05:44:09;;;;;;;32.23;12.87;;;-9.60;99.90;;;;;;4824355;29;20202;-89
2021/01/16 05:46:35;;;;;;;31.70;12.90;;;-9.50;99.90;;;;;;4808913;29;20202;-89
2021/01/16 05:49:03;;;;;;;21.93;10.80;;;-9.60;99.90;;;;;;4809073;29;20713;-89
2021/01/16 05:51:30;;;;;;;33.20;14.47;;;-9.60;99.90;;;;;;4842306;29;20664;-88
2021/01/16 05:53:57;;;;;;;22.57;13.23;;;-9.70;99.90;;;;;;4808752;29;20277;-89
2021/01/16 05:56:23;;;;;;;27.80;12.67;;;-7.80;99.90;;;;;;4819080;29;20198;-88
2021/01/16 05:58:51;;;;;;;34.70;13.33;;;-9.60;99.90;;;;;;4824120;29;20195;-89
2021/01/16 06:01:26;;;;;;;39.97;17.93;;;-9.60;99.90;;;;;;4852458;29;20273;-89
2021/01/16 06:03:53;;;;;;;33.47;12.40;;;-9.80;99.90;;;;;;4808743;29;20190;-89
2021/01/16 06:06:19;;;;;;;35.40;16.00;;;-9.80;99.90;;;;;;4840595;29;20187;-89
2021/01/16 06:08:52;;;;;;;39.37;18.17;;;-8.40;99.90;;;;;;4805994;29;20661;-89
2021/01/16 06:11:18;;;;;;;35.50;16.77;;;-9.90;99.90;;;;;;4840752;29;20399;-90
2021/01/16 06:13:47;;;;;;;29.43;12.97;;;-9.90;99.90;;;;;;4809071;29;20625;-89
2021/01/16 06:16:15;;;;;;;39.23;17.50;;;-10.00;99.90;;;;;;4853082;29;20187;-89
2021/01/16 06:18:47;;;;;;;33.23;13.80;;;-10.00;99.90;;;;;;4844095;29;20230;-89
2021/01/16 06:21:22;;;;;;;21.23;10.10;;;-9.90;99.90;;;;;;4848306;29;20516;-86
2021/01/16 06:23:53;;;;;;;34.60;15.40;;;-9.90;99.90;;;;;;4827195;29;20273;-88
2021/01/16 06:26:20;;;;;;;42.03;15.13;;;-8.80;99.90;;;;;;4824261;29;20223;-90
2021/01/16 06:29:00;;;;;;;38.53;18.40;;;-10.00;99.90;;;;;;4829759;29;20196;-89
2021/01/16 06:31:27;;;;;;;29.60;13.67;;;-9.80;99.90;;;;;;4815931;29;20571;-91
2021/01/16 06:33:59;;;;;;;42.67;14.40;;;-10.10;99.90;;;;;;4854267;29;20187;-88
2021/01/16 06:36:28;;;;;;;31.07;14.37;;;-7.80;99.90;;;;;;4837542;29;20560;-87
2021/01/16 06:39:07;;;;;;;41.27;17.00;;;-9.90;99.90;;;;;;4838994;29;20274;-88
2021/01/16 06:41:35;;;;;;;33.27;12.17;;;-9.80;99.90;;;;;;4796342;29;20255;-86
2021/01/16 06:44:02;;;;;;;25.20;12.63;;;-10.00;99.90;;;;;;4844161;29;20186;-86
2021/01/16 06:46:48;;;;;;;36.80;14.87;;;-9.90;99.90;;;;;;4840124;29;20286;-88
2021/01/16 06:49:24;;;;;;;37.10;14.50;;;-9.90;99.90;;;;;;4844034;29;20194;-87
2021/01/16 06:52:10;;;;;;;40.07;18.53;;;-10.00;99.90;;;;;;4844423;29;20197;-87
2021/01/16 06:54:37;;;;;;;35.97;17.30;;;-9.90;99.90;;;;;;4841489;29;20208;-87
2021/01/16 06:57:13;;;;;;;35.97;16.70;;;-10.00;99.90;;;;;;4831494;29;20217;-87
2021/01/16 06:59:43;;;;;;;38.90;16.77;;;-9.80;99.90;;;;;;4858607;29;20198;-86
2021/01/16 07:02:26;;;;;;;28.70;13.13;;;-9.80;99.90;;;;;;4814808;29;20232;-88
2021/01/16 07:04:57;;;;;;;27.20;11.97;;;-9.80;99.90;;;;;;4860099;29;20545;-87
2021/01/16 07:07:31;;;;;;;25.97;14.77;;;-9.80;99.90;;;;;;4856509;29;20198;-87
2021/01/16 07:10:10;;;;;;;38.73;16.13;;;-9.80;99.90;;;;;;4836629;29;20197;-90
2021/01/16 07:12:36;;;;;;;39.03;15.70;;;-9.80;99.90;;;;;;4841833;29;20329;-90
2021/01/16 07:15:07;;;;;;;42.67;19.37;;;-10.10;99.90;;;;;;4853352;29;20218;-90
2021/01/16 07:17:35;;;;;;;34.73;16.77;;;-11.80;99.90;;;;;;4854879;29;20219;-89
2021/01/16 07:20:05;;;;;;;25.50;11.73;;;-8.60;99.90;;;;;;4841199;29;20610;-90
2021/01/16 07:22:37;;;;;;;28.27;13.80;;;-9.90;99.90;;;;;;4835595;29;20198;-90
2021/01/16 07:25:06;;;;;;;43.27;17.70;;;-10.10;99.90;;;;;;4842864;29;20207;-90
2021/01/16 07:27:36;;;;;;;44.17;18.03;;;-9.90;99.90;;;;;;4836575;29;20201;-91
2021/01/16 07:30:11;;;;;;;29.33;11.93;;;-8.30;99.90;;;;;;4835693;29;20666;-93
2021/01/16 07:32:50;;;;;;;34.97;14.87;;;-9.80;99.90;;;;;;4839957;29;20610;-89
2021/01/16 07:35:24;;;;;;;41.07;16.43;;;-9.50;99.90;;;;;;4834637;29;20197;-90
2021/01/16 07:37:54;;;;;;;32.90;14.20;;;-7.00;99.90;;;;;;4855799;29;20235;-90
2021/01/16 07:40:28;;;;;;;36.60;15.80;;;-7.90;99.90;;;;;;4839286;29;20197;-89
2021/01/16 07:42:55;;;;;;;24.87;12.80;;;-9.70;99.90;;;;;;4816537;29;20191;-91
2021/01/16 07:45:32;;;;;;;40.97;14.87;;;-9.00;99.90;;;;;;4821535;29;20209;-91
2021/01/16 07:48:00;;;;;;;35.97;14.90;;;-9.80;99.90;;;;;;4832765;29;20383;-89
2021/01/16 07:50:31;;;;;;;26.50;12.87;;;-8.90;99.90;;;;;;4834463;29;20200;-89
2021/01/16 07:53:30;;;;;;;29.07;14.00;;;-9.60;99.90;;;;;;4837548;29;20186;-88
2021/01/16 07:56:06;;;;;;;33.07;13.90;;;-9.90;99.90;;;;;;4843815;29;20270;-91
2021/01/16 07:58:32;;;;;;;31.07;12.73;;;-9.50;99.90;;;;;;4843988;29;20305;-89
2021/01/16 08:01:39;;;;;;;29.37;14.10;;;-8.80;99.90;;;;;;4830430;29;20222;-92
2021/01/16 08:04:23;;;;;;;26.77;11.60;;;-9.60;99.90;;;;;;4860746;29;20255;-92
2021/01/16 08:07:09;;;;;;;30.77;12.77;;;-10.80;99.90;;;;;;4830662;29;20205;-89
2021/01/16 08:09:50;;;;;;;27.63;11.97;;;-8.70;99.90;;;;;;4832883;29;20278;-90
2021/01/16 08:12:18;;;;;;;29.57;13.10;;;-8.00;99.90;;;;;;4840424;29;20249;-93
2021/01/16 08:14:48;;;;;;;28.70;11.43;;;-6.90;99.90;;;;;;4824070;29;20192;-94
2021/01/16 08:17:38;;;;;;;28.90;13.63;;;-7.60;99.90;;;;;;4836203;29;20209;-94
2021/01/16 08:20:08;;;;;;;27.83;13.90;;;-9.30;99.90;;;;;;4850436;29;20258;-94
2021/01/16 08:22:44;;;;;;;27.37;12.77;;;-9.20;99.90;;;;;;4833681;29;20198;-92
2021/01/16 08:25:19;;;;;;;26.90;13.07;;;-6.50;99.90;;;;;;4826529;29;20229;-92
2021/01/16 08:27:56;;;;;;;25.70;12.73;;;-7.40;99.90;;;;;;4826394;29;20197;-92
2021/01/16 08:30:48;;;;;;;29.87;14.33;;;-7.70;99.90;;;;;;4838083;29;20186;-91
2021/01/16 08:33:17;;;;;;;36.50;13.23;;;-9.10;99.90;;;;;;4861438;29;20164;-93
2021/01/16 08:41:06;;;;;;;22.77;11.53;;;-6.60;99.90;;;;;;5069528;23;20338;-93
2021/01/16 08:43:43;;;;;;;11.23;6.60;;;-7.10;99.90;;;;;;4867248;29;20194;-93
2021/01/16 08:46:16;;;;;;;26.93;12.03;;;-8.80;99.90;;;;;;4867156;29;20206;-94
2021/01/16 08:48:59;;;;;;;23.83;10.17;;;-8.70;99.90;;;;;;4868527;29;20264;-94
2021/01/16 08:51:35;;;;;;;15.63;8.23;;;-8.90;99.90;;;;;;4898018;23;20309;-91
2021/01/16 08:54:21;;;;;;;18.87;9.30;;;-8.80;99.90;;;;;;4881749;29;20170;-91
2021/01/16 08:56:52;;;;;;;21.43;8.90;;;-7.20;99.90;;;;;;4876971;29;20214;-89
2021/01/16 08:59:19;;;;;;;12.97;8.17;;;-9.50;99.90;;;;;;4859554;29;20182;-91
2021/01/16 09:01:49;;;;;;;24.60;10.57;;;-7.70;99.90;;;;;;4881726;29;20246;-87
2021/01/16 09:04:21;;;;;;;24.27;10.07;;;-9.60;99.90;;;;;;4882490;29;20186;-93
2021/01/16 09:06:47;;;;;;;20.33;10.00;;;-10.20;99.90;;;;;;4870148;29;20300;-88
2021/01/16 09:09:22;;;;;;;24.37;11.80;;;-7.50;99.90;;;;;;4865993;29;20655;-89
2021/01/16 09:12:12;;;;;;;28.47;10.57;;;-8.60;99.90;;;;;;4829577;29;20193;-88
2021/01/16 09:14:40;;;;;;;17.83;8.40;;;-8.60;99.90;;;;;;4843754;29;20233;-88
2021/01/16 09:17:31;;;;;;;17.53;8.87;;;-8.40;99.90;;;;;;4845405;29;20302;-96
2021/01/16 09:20:26;;;;;;;18.30;8.83;;;-7.70;99.90;;;;;;4834942;29;20213;-93
2021/01/16 09:22:52;;;;;;;28.03;8.47;;;-7.90;99.90;;;;;;4849470;29;20259;-93
2021/01/16 09:25:25;;;;;;;25.53;10.37;;;-7.10;99.90;;;;;;4844597;29;20190;-91
2021/01/16 09:27:54;;;;;;;27.57;11.20;;;-8.50;99.90;;;;;;4861220;29;20277;-93
2021/01/16 09:30:27;;;;;;;23.87;9.20;;;-8.40;99.90;;;;;;4852132;29;20221;-95
2021/01/16 09:32:56;;;;;;;23.10;9.90;;;-8.40;99.90;;;;;;4831730;29;20214;-95
2021/01/16 09:35:37;;;;;;;23.63;9.50;;;-6.60;99.90;;;;;;4846601;29;20270;-92
2021/01/16 09:38:05;;;;;;;20.47;9.47;;;-5.50;99.90;;;;;;4859499;29;20218;-93
2021/01/16 09:40:39;;;;;;;28.53;9.93;;;-8.20;99.90;;;;;;4833150;29;20199;-93
2021/01/16 09:43:25;;;;;;;24.33;12.07;;;-8.00;99.90;;;;;;4843656;29;20246;-92
2021/01/16 09:46:09;;;;;;;;;;;;;;;;;;;;;
2021/01/16 09:48:59;;;;;;;30.27;13.17;;;-8.10;99.90;;;;;;4866482;29;20274;-93
2021/01/16 09:51:29;;;;;;;14.23;7.07;;;-8.00;99.90;;;;;;5115044;23;21295;-89
2021/01/16 09:54:16;;;;;;;25.93;10.33;;;-6.60;99.90;;;;;;4840927;29;20230;-93
2021/01/16 09:56:49;;;;;;;23.17;9.67;;;-8.00;99.90;;;;;;4820542;29;20298;-93
2021/01/16 09:59:24;;;;;;;26.93;11.67;;;-5.60;99.90;;;;;;4833801;29;20203;-94
2021/01/16 10:02:25;;;;;;;20.07;8.33;;;-5.20;99.90;;;;;;4833087;29;20181;-92
2021/01/16 10:04:55;;;;;;;148.90;59.77;;;-5.90;99.90;;;;;;4795704;29;20210;-91
2021/01/16 10:07:37;;;;;;;27.33;11.47;;;-7.40;99.90;;;;;;4827763;29;20277;-95
2021/01/16 10:10:23;;;;;;;26.13;9.23;;;-5.80;99.90;;;;;;4834012;29;20198;-95
2021/01/16 10:13:02;;;;;;;14.77;6.13;;;-7.30;99.90;;;;;;4843671;29;20222;-94
2021/01/16 10:15:39;;;;;;;19.30;8.47;;;-6.40;99.90;;;;;;4972317;23;20607;-88
2021/01/16 10:18:15;;;;;;;14.77;7.33;;;-7.10;99.90;;;;;;4896817;24;20337;-94
2021/01/16 10:20:41;;;;;;;24.73;7.83;;;;;;;;;;4862924;29;20175;-95
2021/01/16 10:23:16;;;;;;;18.00;8.80;;;-7.30;99.90;;;;;;4864907;29;20194;-93
2021/01/16 10:26:07;;;;;;;22.47;10.87;;;-5.90;99.90;;;;;;4907554;23;20239;-93
2021/01/16 10:28:37;;;;;;;22.77;10.77;;;-4.30;99.90;;;;;;4863359;29;20257;-95
2021/01/16 10:31:08;;;;;;;23.93;11.27;;;-4.30;99.90;;;;;;4855492;29;20221;-95
2021/01/16 10:33:37;;;;;;;18.20;9.93;;;-6.80;99.90;;;;;;5126600;24;20226;-95
2021/01/16 10:36:15;;;;;;;5.27;4.50;;;-5.90;99.90;;;;;;5030677;23;20310;-94
2021/01/16 10:38:48;;;;;;;23.33;9.77;;;-6.10;99.90;;;;;;4880821;24;20252;-93
2021/01/16 10:41:32;;;;;;;23.40;9.87;;;-6.30;99.90;;;;;;4845217;29;20662;-90
2021/01/16 10:44:01;;;;;;;32.60;12.50;;;-6.70;99.90;;;;;;4825507;29;20334;-93
2021/01/16 10:46:30;;;;;;;23.40;10.27;;;-6.40;99.90;;;;;;4817966;29;20197;-93
2021/01/16 10:49:12;;;;;;;16.27;8.67;;;-5.20;99.90;;;;;;4827408;29;20199;-94
2021/01/16 10:51:50;;;;;;;22.50;10.50;;;-6.50;99.90;;;;;;4814981;29;20283;-91
2021/01/16 10:54:16;;;;;;;20.40;9.50;;;-6.60;99.90;;;;;;4808769;29;20224;-92
2021/01/16 10:57:06;;;;;;;22.03;10.93;;;-6.90;99.90;;;;;;4820505;29;20192;-94
2021/01/16 10:59:38;;;;;;;30.80;10.40;;;-6.50;99.90;;;;;;4809210;29;20206;-93
2021/01/16 11:02:31;;;;;;;30.77;13.23;;;-6.50;99.90;;;;;;4840920;29;20191;-94
2021/01/16 11:05:16;;;;;;;22.80;10.97;;;-6.20;99.90;;;;;;4826876;29;20314;-90
2021/01/16 11:07:45;;;;;;;23.83;10.37;;;-4.50;99.90;;;;;;4812291;29;20190;-93
2021/01/16 11:10:11;;;;;;;28.80;13.83;;;-5.20;99.90;;;;;;4811925;29;20197;-91
2021/01/16 11:12:39;;;;;;;25.73;10.57;;;-6.20;99.90;;;;;;4825474;29;20186;-92
2021/01/16 11:15:30;;;;;;;29.00;14.83;;;-6.50;99.90;;;;;;4825306;29;20199;-96
2021/01/16 11:18:01;;;;;;;30.43;13.23;;;-6.70;99.90;;;;;;4812256;29;20215;-94
2021/01/16 11:20:36;;;;;;;26.43;13.77;;;-5.60;99.90;;;;;;4806850;29;20200;-94
2021/01/16 11:23:04;;;;;;;29.17;12.83;;;-7.00;99.90;;;;;;4841552;29;20288;-92
2021/01/16 11:25:47;;;;;;;29.87;14.87;;;-6.10;99.90;;;;;;4844317;29;20199;-91
2021/01/16 11:28:20;;;;;;;35.20;13.87;;;-5.80;99.90;;;;;;4832340;29;20193;-91
2021/01/16 11:30:49;;;;;;;37.13;16.00;;;-4.90;99.90;;;;;;4812619;29;20212;-91
2021/01/16 11:33:28;;;;;;;38.03;16.23;;;-4.70;99.90;;;;;;4815096;29;20196;-91
2021/01/16 11:36:34;;;;;;;27.53;12.90;;;-5.20;99.90;;;;;;4826818;29;20249;-91
2021/01/16 11:43:10;;;;;;;34.07;16.37;;;-7.00;99.90;;;;;;4822954;29;20243;-95
2021/01/16 11:45:37;;;;;;;33.53;14.73;;;-7.10;99.90;;;;;;4831094;29;20200;-90
2021/01/16 11:48:04;;;;;;;50.53;19.70;;;-7.10;99.90;;;;;;4826879;29;20674;-92
2021/01/16 11:50:32;;;;;;;40.57;17.50;;;-7.10;99.90;;;;;;4810875;29;20201;-93
2021/01/16 11:53:11;;;;;;;44.90;18.73;;;-4.80;99.90;;;;;;4841677;29;20196;-94
2021/01/16 11:55:38;;;;;;;45.37;18.83;;;-5.90;99.90;;;;;;4801321;29;20193;-90
2021/01/16 11:58:04;;;;;;;40.00;18.90;;;-4.10;99.90;;;;;;4836724;29;20223;-91
2021/01/16 12:00:31;;;;;;;40.53;15.27;;;-4.80;99.90;;;;;;4830546;29;20201;-91
2021/01/16 12:02:58;;;;;;;44.00;18.80;;;-4.30;99.90;;;;;;4838957;29;20216;-90
2021/01/16 12:05:25;;;;;;;52.93;20.90;;;-5.70;99.90;;;;;;4824855;29;20196;-91
2021/01/16 12:07:56;;;;;;;51.47;20.77;;;-6.10;99.90;;;;;;4840975;29;20225;-90
2021/01/16 12:10:24;;;;;;;38.37;15.97;;;-5.10;99.90;;;;;;4812160;29;20238;-90
2021/01/16 12:12:50;;;;;;;38.97;16.00;;;-3.50;99.90;;;;;;4811584;29;20655;-90
2021/01/16 12:15:24;;;;;;;39.77;16.73;;;-6.90;99.90;;;;;;4807697;29;20191;-89
2021/01/16 12:17:51;;;;;;;38.40;18.17;;;-7.20;99.90;;;;;;4824115;29;20270;-88
2021/01/16 12:20:21;;;;;;;38.13;16.47;;;-7.80;99.90;;;;;;4844836;29;20655;-92
2021/01/16 12:22:51;;;;;;;39.00;19.10;;;-4.00;99.90;;;;;;4827272;29;20692;-94
2021/01/16 12:25:18;;;;;;;35.93;16.43;;;-6.20;99.90;;;;;;4809755;29;20189;-91
2021/01/16 12:27:53;;;;;;;30.77;13.30;;;-4.80;99.90;;;;;;4842423;29;20193;-92
2021/01/16 12:30:23;;;;;;;26.40;10.97;;;-6.30;99.90;;;;;;4832258;29;20184;-94
2021/01/16 12:32:49;;;;;;;39.90;14.40;;;-7.60;99.90;;;;;;4807431;29;20191;-89
2021/01/16 12:35:21;;;;;;;40.33;14.87;;;-7.30;99.90;;;;;;4822930;29;20183;-88
2021/01/16 12:37:47;;;;;;;40.33;15.63;;;-4.60;99.90;;;;;;4819427;29;20275;-94
2021/01/16 12:40:16;;;;;;;41.20;17.97;;;-6.60;99.90;;;;;;4824590;29;20595;-89
2021/01/16 12:42:42;;;;;;;30.17;13.63;;;-7.20;99.90;;;;;;4808586;29;20241;-93
2021/01/16 12:45:19;;;;;;;35.03;15.63;;;-7.40;99.90;;;;;;4804756;29;20196;-90
2021/01/16 12:47:50;;;;;;;37.43;15.90;;;-7.20;99.90;;;;;;4838737;29;20213;-91
2021/01/16 12:50:24;;;;;;;26.67;10.93;;;-5.00;99.90;;;;;;4808137;29;20196;-89
2021/01/16 12:52:53;;;;;;;36.03;15.27;;;-4.10;99.90;;;;;;4807455;29;20196;-89
2021/01/16 12:55:29;;;;;;;54.23;21.13;;;-7.00;99.90;;;;;;5108307;27;20557;-88
2021/01/16 12:57:59;;;;;;;44.83;16.63;;;-4.80;99.90;;;;;;5102773;28;20191;-88